Nearby METAR Reports


KPVF - Placerville, California, USA
Distance from station: E 5mi, 14km
Updated: 11/23/2017 4:35am
Clear
Clear
 Wind from E
Wind: E 5 mph , 7 km/h
Temperature: 66°F , 19°C
Dew Point: 37°F , 3°C
Humidity: 35%
Barometer: 30.19 inHg , 1022.4 hPa
Clouds: Clear
Visibility: 10 miles , 16 km
2017/11/23 12:35 KPVF 231235Z AUTO 09004KT 10SM CLR 19/03 A3019 RMK AO1
KAUN - Auburn, California, USA
Distance from station: NE 37mi, 14km
Updated: 11/23/2017 4:35am
Clear
Clear
 Wind from calm
Wind: Calm
Temperature: 61°F , 16°C
Dew Point: 48°F , 9°C
Humidity: 63%
Barometer: 30.14 inHg , 1020.7 hPa
Clouds: Clear
Visibility: 10 miles , 16 km
2017/11/23 12:35 KAUN 231235Z AUTO 00000KT 10SM CLR 16/09 A3014 RMK AO1
 
KMHR - Mather, California, USA
Distance from station: NNW 30mi, 23km
Updated: 11/23/2017 4:45am
Mostly cloudy
Mostly cloudy
 Wind from calm
Wind: Calm
Temperature: 54°F , 12°C
Dew Point: 54°F , 12°C
Humidity: 100%
Barometer: 30.12 inHg , 1020 hPa
Clouds: Mostly cloudy
Visibility: 10 miles , 16 km
Cloud details: Mostly cloudy 3000 ft
2017/11/23 12:45 KMHR 231245Z 00000KT 10SM BKN030 12/12 A3012
KSAC - Sacramento, California, USA
Distance from station: WNW 45mi, 50km
Updated: 11/23/2017 4:45am
Mist, Overcast
Mist, Overcast
 Wind from SW
Wind: SW 5 mph , 7 km/h
Temperature: 54°F , 12°C
Dew Point: 54°F , 12°C
Humidity: 100%
Barometer: 30.12 inHg , 1020 hPa
Summary: Mist
Clouds: Overcast
Visibility: 1 mile , 2 km
Cloud details: Overcast 200 ft
2017/11/23 12:45 KSAC 231245Z AUTO 22004KT 1SM BR VV002 12/12 A3012 RMK AO2 T01170117
 
KSMF - Sacramento Metro, California, USA
Distance from station: NNE 50mi, 51km
Updated: 11/23/2017 4:33am
Fog, Mostly cloudy
Fog, Mostly cloudy
 Wind from NW
Wind: NW 6 mph , 9 km/h
Temperature: 52°F , 11°C
Dew Point: 52°F , 11°C
Humidity: 100%
Barometer: 30.11 inHg , 1019.6 hPa
Summary: Fog
Clouds: Mostly cloudy
Visibility: 1/2 mile , 2 km
Cloud details: Mostly cloudy 300 ft
2017/11/23 12:33 KSMF 231233Z 31005KT 1/2SM R16R/4000FT FG BKN003 11/11 A3011 RMK AO2 TWR VIS 3/4 T01060106 $
KBAB - Beale AFB - Marysville, California, USA
Distance from station: NW 21mi, 34km
Updated: 11/23/2017 4:28am
Mostly cloudy
Mostly cloudy
 Wind from N
Wind: N 5 mph , 7 km/h
Temperature: 50°F , 10°C
Wind Chill: 48°F , 9°C
Dew Point: 50°F , 10°C
Humidity: 100%
Barometer: 30.11 inHg , 1019.6 hPa
Clouds: Mostly cloudy
Visibility: 7 miles , 11 km
Cloud details: Partly cloudy 19000 ft
Mostly cloudy 21000 ft
2017/11/23 12:28 KBAB 231228Z AUTO 36004KT 7SM R15/5500FT SCT190 BKN210 10/10 A3011 RMK AO2 SLP199 $
 
KOVE - Oroville, California, USA
Distance from station: ESE 80mi, 43km
Updated: 11/23/2017 3:53am
Clear
Clear
 Wind from N
Wind: N 3 mph , 6 km/h
Temperature: 55°F , 13°C
Dew Point: 54°F , 12°C
Humidity: 94%
Barometer: 30.13 inHg , 1020.3 hPa
Clouds: Clear
Visibility: 8 miles , 13 km
2017/11/23 11:53 KOVE 231153Z AUTO 35003KT 8SM CLR 13/12 A3013 RMK AO2 SLP205 T01280122 10133 20111 58001
KRDD - Redding, California, USA
Distance from station: SSE 225mi, 44km
Updated: 11/23/2017 3:53am
Overcast
Overcast
 Wind from calm
Wind: Calm
Temperature: 57°F , 14°C
Dew Point: 55°F , 13°C
Humidity: 94%
Barometer: 30.12 inHg , 1020 hPa
Clouds: Overcast
Visibility: 9 miles , 14 km
Cloud details: Few Clouds 9000 ft
Overcast 11000 ft
2017/11/23 11:53 KRDD 231153Z AUTO 00000KT 9SM FEW090 OVC110 14/13 A3012 RMK AO2 RAE1054 SLP198 P0000 60001 70001 T01390133 10156 20139 51002
 
KTRK - Tahoe-Truckee, California, USA
Distance from station: NW 60mi, 49km
Updated: 11/23/2017 4:35am
Freezing fog, Overcast
Freezing fog, Overcast
 Wind from calm
Wind: Calm
Temperature: 32°F , 0°C
Dew Point: 32°F , 0°C
Humidity: 100%
Barometer: 30.34 inHg , 1027.4 hPa
Summary: Freezing Fog
Clouds: Overcast
Visibility: 1/2 mile , 2 km
Cloud details: Overcast 100 ft
2017/11/23 12:35 KTRK 231235Z AUTO 00000KT 1/2SM FZFG OVC001 00/00 A3034 RMK AO2
KTVL - South Lake Tahoe, California, USA
Distance from station: N 45mi, 44km
Updated: 11/23/2017 3:53am
Clear
Clear
 Wind from calm
Wind: Calm
Temperature: 41°F , 5°C
Dew Point: 36°F , 2°C
Humidity: 81%
Barometer: 30.32 inHg , 1026.8 hPa
Clouds: Clear
Visibility: 10 miles , 16 km
2017/11/23 11:53 KTVL 231153Z AUTO 00000KT 10SM CLR 05/02 A3032 RMK AO2 SLP243 T00500022 10056 20022 58007
 
KBLU - EMIGRANT GAP, California, USA
Distance from station: NNW 31mi, 50km
Updated: 11/23/2017 3:52am
Clear
Clear
 Wind from ESE
Wind: ESE 5 mph , 7 km/h
Temperature: 57°F , 14°C
Dew Point: 36°F , 2°C
Humidity: 44%
Barometer: 30.31 inHg , 1026.4 hPa
Clouds: Clear
Visibility: 10 miles , 16 km
2017/11/23 11:52 KBLU 231152Z AUTO 12004KT 10SM CLR 14/02 A3031 RMK AO2 SLP199 T01390017 10150 20133 58005 TSNO
KACV - Eureka, California, USA
Distance from station: ENE 387mi, 19km
Updated: 11/23/2017 3:53am
Overcast
Overcast
 Wind from E
Wind: E 5 mph , 7 km/h
Temperature: 59°F , 15°C
Dew Point: 57°F , 14°C
Humidity: 94%
Barometer: 30.10 inHg , 1019.3 hPa
Clouds: Overcast
Visibility: 10 miles , 16 km
Cloud details: Few Clouds 3500 ft
Mostly cloudy 5000 ft
Overcast 6000 ft
2017/11/23 11:53 KACV 231153Z AUTO 09004KT 10SM FEW035 BKN050 OVC060 15/14 A3010 RMK AO2 RAB26E44 SLP199 P0000 60007 70070 T01500144 10172 20144 50007